• Join FlightAware (Why Join?)
  • Login
  • US Flag 
09:24PM EDT


 

Airport Tracker/Info


-or-


 

Live Flight TrackerFlight Track Log ✈ SWA250 ✈ 12-May-2013 ✈ KHOU - KABQ

Flight Track Log - Related Links

Times and Time Zones

All times are in EDT time to prevent confusion due to time zone crossing. See the SWA250 flight status page for this flight to view local times or setup timezone preferences in your user account.

Time Position Orientation Groundspeed Altitude Reporting Facility
EDT Latitude Longitude Course Direction KTS MPH feet Rate Location/Type
12:30AM 29.6658 -95.2325 34° Northeast 227 261 3,400  Level Houston Center
12:31AM 29.6831 -95.2758 295° West 230 265 4,900 3,060 Climbing Houston Center
12:32AM 29.7069 -95.3581 289° West 262 302 8,700 3,240 Climbing Houston Center
12:33AM 29.7314 -95.4469 288° West 284 327 11,500 3,180 Climbing Houston Center
12:34AM 29.7606 -95.5550 287° West 345 397 15,200 3,720 Climbing Houston Center
12:35AM 29.7897 -95.6625 287° West 352 405 19,000 3,900 Climbing Houston Center
12:36AM 29.8139 -95.7581 286° West 321 369 23,100 3,480 Climbing Houston Center
12:37AM 29.8447 -95.8506 291° West 312 359 26,100 1,800 Climbing Houston Center
12:38AM 29.8931 -95.9481 300° West 348 400 26,800 1,260 Climbing Houston Center
12:39AM 29.9406 -96.0556 297° West 377 434 28,700 1,740 Climbing Houston Center
12:40AM 29.9900 -96.1678 297° West 391 450 30,400 1,980 Climbing Houston Center
12:41AM 30.0406 -96.2800 298° West 394 453 32,700 2,100 Climbing Houston Center
12:42AM 30.0900 -96.3919 297° West 392 451 34,700 1,920 Climbing Houston Center
12:43AM 30.1417 -96.5111 297° West 382 440 36,600 1,560 Climbing Houston Center
12:44AM 30.1908 -96.6242 297° West 387 445 37,900 1,380 Climbing Houston Center
12:45AM 30.2397 -96.7367 297° West 387 445 39,400 1,020 Climbing Houston Center
12:46AM 30.2872 -96.8467 297° West 378 435 40,000 240 Climbing Houston Center
12:47AM 30.3361 -96.9553 298° West 376 433 40,000  Level Houston Center
12:48AM 30.3836 -97.0672 296° West 381 438 40,000  Level Houston Center
12:49AM 30.4317 -97.1764 297° West 377 434 40,000  Level Houston Center
12:50AM 30.4794 -97.2886 296° West 382 440 40,000  Level Houston Center
12:51AM 30.5283 -97.4011 297° West 384 442 40,000  Level Houston Center
12:52AM 30.5767 -97.5161 296° West 389 448 40,000  Level Houston Center
12:53AM 30.6267 -97.6311 297° West 391 450 40,000  Level Houston Center
12:54AM 30.6722 -97.7247 300° West 393 452 40,000  Level Houston Center
12:55AM 30.7336 -97.8342 303° West 398 458 40,000  Level Houston Center
12:56AM 30.7947 -97.9439 303° West 398 458 40,000  Level Houston Center
12:57AM 30.8544 -98.0550 302° West 400 460 40,000  Level Houston Center
12:58AM 30.9156 -98.1658 303° West 401 461 40,000  Level Houston Center
12:59AM 30.9772 -98.2764 303° West 402 463 40,000  Level Houston Center
01:00AM 31.0378 -98.3892 302° West 404 465 40,000  Level Houston Center
01:01AM 31.0981 -98.5008 302° West 404 465 40,000  Level Houston Center
01:02AM 31.1586 -98.6136 302° West 406 467 40,000  Level Houston Center
01:03AM 31.2206 -98.7261 303° West 407 468 40,000  Level Houston Center
01:04AM 31.2811 -98.8389 302° West 406 467 40,000  Level Houston Center
01:05AM 31.3408 -98.9494 302° West 399 459 40,000  Level Houston Center
01:06AM 31.3997 -99.0619 302° West 400 460 40,000  Level Houston Center
01:07AM 31.4578 -99.1767 301° West 407 468 40,000  Level Fort Worth Center
01:08AM 31.5167 -99.2850 303° West 407 468 40,000  Level Fort Worth Center
01:09AM 31.5775 -99.4008 302° West 407 468 40,000  Level Fort Worth Center
01:10AM 31.6361 -99.5142 301° West 407 468 40,000  Level Fort Worth Center
01:11AM 31.7031 -99.6403 302° West 413 475 40,000  Level Fort Worth Center
01:12AM 31.7636 -99.7542 302° West 408 470 40,000  Level Fort Worth Center
01:13AM 31.8239 -99.8731 301° West 408 470 40,000  Level Fort Worth Center
01:14AM 31.8861 -99.9897 302° West 413 475 40,000  Level Fort Worth Center
01:15AM 31.9464 -100.1089 301° West 413 475 40,000  Level Fort Worth Center
01:16AM 32.0106 -100.2283 302° West 418 481 40,000  Level Fort Worth Center
01:17AM 32.0706 -100.3478 301° West 423 487 40,000  Level Fort Worth Center
01:18AM 32.1322 -100.4700 301° West 428 493 40,000  Level Fort Worth Center
01:19AM 32.1961 -100.5900 302° West 433 498 40,000  Level Fort Worth Center
01:20AM 32.2578 -100.7103 301° West 433 498 40,000  Level Fort Worth Center
01:21AM 32.3211 -100.8328 301° West 433 498 40,000  Level Fort Worth Center
01:22AM 32.3803 -100.9556 300° West 433 498 40,000  Level Fort Worth Center
01:23AM 32.4458 -101.0789 302° West 433 498 40,000  Level Fort Worth Center
01:24AM 32.5069 -101.2019 301° West 433 498 40,000  Level Fort Worth Center
01:25AM 32.5700 -101.3231 302° West 433 498 40,000  Level Fort Worth Center
01:26AM 32.6347 -101.4492 301° West 433 498 40,000  Level Fort Worth Center
01:27AM 32.6994 -101.5756 301° West 439 505 40,000  Level Fort Worth Center
01:28AM 32.7600 -101.6992 300° West 439 505 40,000  Level Fort Worth Center
01:29AM 32.8225 -101.8233 301° West 439 505 40,000  Level Fort Worth Center
01:30AM 32.8769 -101.9400 299° West 439 505 40,000  Level Fort Worth Center
01:31AM 32.9428 -102.0769 300° West 439 505 40,000  Level Fort Worth Center
01:32AM 33.0050 -102.2014 301° West 439 505 40,000  Level Fort Worth Center
01:33AM 33.0628 -102.3211 300° West 447 514 40,000  Level Fort Worth Center
01:34AM 33.1306 -102.4586 301° West 447 514 40,000  Level Fort Worth Center
01:35AM 33.1842 -102.5711 300° West 447 514 40,000  Level Fort Worth Center
01:36AM 33.2519 -102.6992 302° West 453 521 40,000  Level Fort Worth Center
01:38AM 33.3742 -102.9556 300° West 451 519 40,000  Level Albuquerque Center
01:39AM 33.4375 -103.0864 300° West 453 521 40,000 -60 Level Albuquerque Center
01:40AM 33.5003 -103.2181 300° West 455 524 39,900 -600 Descending Albuquerque Center
01:41AM 33.5622 -103.3503 299° West 456 525 38,900 -1,020 Descending Albuquerque Center
01:42AM 33.6247 -103.4817 300° West 455 524 37,900 -1,080 Descending Albuquerque Center
01:43AM 33.7033 -103.6458 300° West 465 535 36,800 -960 Descending Albuquerque Center
01:44AM 33.7669 -103.7850 299° West 478 550 36,000 -420 Descending Albuquerque Center
01:45AM 33.8328 -103.9258 299° West 485 558 36,000  Level Albuquerque Center
01:46AM 33.8961 -104.0644 299° West 478 550 36,000  Level Albuquerque Center
01:47AM 33.9619 -104.2067 299° West 485 558 36,000  Level Albuquerque Center
01:49AM 34.0869 -104.4772 299° West 479 551 36,000  Level Albuquerque Center
01:50AM 34.1522 -104.6183 299° West 476 548 36,000  Level Albuquerque Center
01:51AM 34.2178 -104.7608 299° West 477 549 36,000  Level Albuquerque Center
01:52AM 34.2836 -104.9033 299° West 479 551 36,000  Level Albuquerque Center
01:53AM 34.3483 -105.0469 299° West 481 554 36,000  Level Albuquerque Center
01:54AM 34.4125 -105.1881 299° West 476 548 36,000 -300 Level Albuquerque Center
01:55AM 34.4778 -105.3311 299° West 479 551 35,400 -1,620 Descending Albuquerque Center
01:56AM 34.5411 -105.4728 299° West 476 548 32,800 -3,420 Descending Albuquerque Center
01:57AM 34.6056 -105.6158 299° West 476 548 28,600 -3,960 Descending Albuquerque Center
01:58AM 34.6667 -105.7617 297° West 497 572 25,300 -3,240 Descending Albuquerque Center
01:58AM 34.6850 -105.8033 298° West 492 566 24,700 -2,460 Descending Albuquerque Center
02:00AM 34.7917 -106.0347 299° West 450 518 20,200 -2,340 Descending Albuquerque Center
02:01AM 34.8453 -106.1606 297° West 425 489 18,200 -1,920 Descending Albuquerque Center
02:02AM 34.8881 -106.2625 297° West 397 457 16,400 -2,520 Descending Albuquerque Center
02:03AM 34.9056 -106.3878 280° West 377 434 13,200 -2,760 Descending Albuquerque Center
02:04AM 34.9089 -106.5103 272° West 373 429 10,900 -1,560 Descending Albuquerque Center
02:05AM 34.8756 -106.6106 248° West 336 387 10,100 -1,500 Descending Albuquerque Center
02:06AM 34.9081 -106.6922 296° West 291 335 7,900 -1,440 Descending Albuquerque Center
02:07AM 34.9550 -106.7250 330° Northwest 238 274 7,200 -780 Descending Albuquerque Center
02:08AM 34.9833 -106.6769 54° Northeast 197 227 6,400 -960 Descending Albuquerque Center
02:08AM 34.9981 -106.6611 41° Northeast 165 190 6,000 -1,020 Descending Albuquerque Center
02:09AM 35.0211 -106.6303 48° Northeast 174 200 5,400 -840 Descending Albuquerque Center